createdAt,value
2022-11-05T00:02:00.324Z,97.08
2022-11-05T00:04:45.278Z,97.13
2022-11-05T00:07:33.155Z,97.11
2022-11-05T00:10:08.310Z,96.96
2022-11-05T00:12:53.428Z,97.00
2022-11-05T00:15:38.202Z,96.99
2022-11-05T00:18:04.579Z,96.97
2022-11-05T00:20:30.919Z,96.99
2022-11-05T00:23:20.558Z,97.09
2022-11-05T00:25:56.908Z,97.16
2022-11-05T00:28:24.103Z,97.20
2022-11-05T00:30:50.646Z,97.07
2022-11-05T00:33:17.066Z,97.13
2022-11-05T00:35:43.414Z,97.18
2022-11-05T00:38:09.807Z,97.39
2022-11-05T00:40:36.522Z,97.45
2022-11-05T00:43:21.449Z,97.46
2022-11-05T00:45:47.764Z,97.42
2022-11-05T00:48:32.392Z,97.48
2022-11-05T00:50:58.720Z,97.47
2022-11-05T00:53:25.036Z,97.53
2022-11-05T00:55:51.366Z,97.46
2022-11-05T00:58:20.428Z,97.40
2022-11-05T01:00:51.914Z,97.51
2022-11-05T01:03:21.031Z,97.43
2022-11-05T01:05:58.993Z,97.34
2022-11-05T01:08:27.958Z,97.23
2022-11-05T01:10:56.875Z,97.27
2022-11-05T01:13:27.131Z,97.26
2022-11-05T01:15:54.532Z,97.08
2022-11-05T01:18:22.295Z,97.14
2022-11-05T01:20:48.699Z,97.18
2022-11-05T01:23:16.202Z,96.87
2022-11-05T01:25:44.002Z,97.02
2022-11-05T01:28:10.631Z,97.04
2022-11-05T01:30:37.174Z,96.99
2022-11-05T01:33:03.606Z,97.02
2022-11-05T01:35:30.024Z,96.98
2022-11-05T01:37:56.363Z,96.96
2022-11-05T01:40:24.503Z,96.95
2022-11-05T01:42:51.048Z,97.02
2022-11-05T01:45:21.443Z,96.93
2022-11-05T01:47:53.582Z,96.97
2022-11-05T01:50:41.283Z,96.91
2022-11-05T01:56:09.544Z,97.02
2022-11-05T01:58:42.576Z,97.12
2022-11-05T02:01:09.045Z,97.18
2022-11-05T02:03:35.860Z,97.22
2022-11-05T02:06:03.368Z,97.18
2022-11-05T02:08:43.151Z,97.22
2022-11-05T02:11:12.946Z,96.87
2022-11-05T02:13:39.946Z,96.54
2022-11-05T02:16:16.495Z,96.48
2022-11-05T02:19:09.755Z,96.51
2022-11-05T02:22:16.946Z,96.67
2022-11-05T02:25:00.201Z,96.83
2022-11-05T02:27:50.871Z,96.92
2022-11-05T02:30:42.097Z,97.19
2022-11-05T02:33:14.509Z,97.18
2022-11-05T02:35:46.613Z,97.31
2022-11-05T02:38:18.834Z,97.39
2022-11-05T02:41:15.924Z,97.42
2022-11-05T02:43:45.254Z,97.76
2022-11-05T02:46:26.621Z,97.69
2022-11-05T02:48:59.855Z,97.69
2022-11-05T02:51:45.164Z,97.66
2022-11-05T02:54:39.026Z,98.27
2022-11-05T02:57:06.052Z,98.38
2022-11-05T02:59:32.632Z,98.81
2022-11-05T03:02:00.696Z,98.86
2022-11-05T03:04:27.962Z,98.92
2022-11-05T03:07:25.005Z,98.78
2022-11-05T03:10:06.968Z,98.86
2022-11-05T03:12:56.910Z,99.10
2022-11-05T03:15:39.347Z,98.87
2022-11-05T03:18:25.555Z,98.62
2022-11-05T03:21:02.765Z,98.91
2022-11-05T03:23:47.860Z,98.78
2022-11-05T03:26:23.068Z,98.62
2022-11-05T03:28:55.150Z,98.81
2022-11-05T03:31:24.431Z,98.88
2022-11-05T03:33:53.111Z,98.91
2022-11-05T03:36:26.435Z,99.04
2022-11-05T03:38:56.620Z,99.24
2022-11-05T03:41:25.147Z,99.26
2022-11-05T03:43:57.117Z,99.35
2022-11-05T03:46:32.442Z,99.39
2022-11-05T03:49:03.046Z,99.29
2022-11-05T03:51:41.661Z,99.18
2022-11-05T03:54:09.295Z,99.22
2022-11-05T03:56:48.634Z,99.30
2022-11-05T03:59:15.995Z,99.34
2022-11-05T04:01:42.559Z,99.27
2022-11-05T04:04:09.636Z,99.08
2022-11-05T04:06:54.755Z,99.21
2022-11-05T04:09:39.516Z,99.13
2022-11-05T04:12:24.841Z,99.11
2022-11-05T04:14:51.174Z,99.23
2022-11-05T04:17:17.496Z,99.28
2022-11-05T04:20:03.662Z,99.24
2022-11-05T04:22:50.788Z,99.32
2022-11-05T04:25:18.460Z,99.32
2022-11-05T04:27:46.004Z,99.40
2022-11-05T04:30:19.749Z,99.38
2022-11-05T04:32:59.562Z,99.41
2022-11-05T04:35:28.671Z,99.45
2022-11-05T04:37:55.053Z,99.58
2022-11-05T04:40:21.700Z,99.60
2022-11-05T04:42:48.100Z,99.45
2022-11-05T04:45:14.518Z,99.50
2022-11-05T04:47:40.906Z,99.43
2022-11-05T04:50:08.826Z,99.58
2022-11-05T04:52:35.179Z,99.96
2022-11-05T04:55:01.490Z,100.00
2022-11-05T04:57:27.812Z,99.96
2022-11-05T04:59:55.020Z,100.00
2022-11-05T05:02:21.450Z,100.00
2022-11-05T05:04:47.783Z,99.98
2022-11-05T05:07:14.175Z,100.00
2022-11-05T05:09:40.536Z,100.00
2022-11-05T05:12:07.877Z,100.00
2022-11-05T05:14:34.444Z,100.00
2022-11-05T05:17:00.755Z,100.00
2022-11-05T05:19:27.167Z,100.00
2022-11-05T05:21:53.496Z,100.00
2022-11-05T05:24:21.110Z,100.00
2022-11-05T05:26:49.367Z,100.00
2022-11-05T05:29:17.278Z,99.97
2022-11-05T05:31:44.135Z,99.90
2022-11-05T05:34:12.710Z,99.66
2022-11-05T05:36:39.315Z,98.95
2022-11-05T05:39:07.232Z,99.28
2022-11-05T05:41:33.875Z,99.35
2022-11-05T05:44:00.229Z,99.32
2022-11-05T05:46:26.543Z,99.36
2022-11-05T05:48:52.852Z,99.44
2022-11-05T05:51:19.714Z,99.48
2022-11-05T05:53:46.269Z,99.51
2022-11-05T05:56:14.948Z,99.49
2022-11-05T05:58:41.979Z,99.08
2022-11-05T06:01:17.230Z,99.08
2022-11-05T06:03:45.227Z,98.83
2022-11-05T06:06:13.298Z,98.63
2022-11-05T06:08:40.052Z,98.54
2022-11-05T06:11:07.126Z,98.60
2022-11-05T06:13:33.546Z,98.79
2022-11-05T06:16:05.432Z,98.81
2022-11-05T06:18:32.699Z,98.87
2022-11-05T06:21:07.272Z,99.02
2022-11-05T06:23:35.212Z,99.15
2022-11-05T06:26:02.881Z,99.05
2022-11-05T06:28:29.504Z,99.04
2022-11-05T06:30:57.200Z,98.86
2022-11-05T06:33:23.668Z,98.79
2022-11-05T06:35:50.042Z,98.93
2022-11-05T06:38:16.396Z,99.05
2022-11-05T06:40:42.712Z,99.03
2022-11-05T06:43:09.324Z,98.94
2022-11-05T06:45:35.894Z,99.05
2022-11-05T06:48:02.215Z,99.05
2022-11-05T06:50:29.084Z,99.10
2022-11-05T06:53:00.792Z,99.07
2022-11-05T06:55:29.272Z,99.16
2022-11-05T06:57:56.408Z,99.23
2022-11-05T07:00:23.366Z,99.18
2022-11-05T07:02:50.086Z,99.16
2022-11-05T07:05:17.282Z,98.97
2022-11-05T07:07:45.030Z,99.08
2022-11-05T07:10:14.811Z,99.33
2022-11-05T07:12:41.549Z,99.26
2022-11-05T07:15:08.875Z,99.25
2022-11-05T07:17:35.227Z,99.30
2022-11-05T07:20:01.551Z,99.42
2022-11-05T07:22:27.858Z,99.53
2022-11-05T07:24:54.170Z,99.65
2022-11-05T07:27:20.699Z,99.60
2022-11-05T07:29:47.011Z,99.66
2022-11-05T07:32:13.357Z,99.67
2022-11-05T07:34:39.654Z,99.87
2022-11-05T07:37:06.366Z,99.96
2022-11-05T07:39:32.665Z,99.94
2022-11-05T07:41:58.978Z,100.00
2022-11-05T07:44:31.828Z,100.00
2022-11-05T07:46:58.168Z,100.00
2022-11-05T07:49:24.451Z,100.00
2022-11-05T07:51:50.751Z,100.00
2022-11-05T07:54:17.061Z,100.00
2022-11-05T07:56:43.395Z,100.00
2022-11-05T07:59:09.712Z,100.00
2022-11-05T08:01:36.133Z,100.00
2022-11-05T08:04:02.678Z,100.00
2022-11-05T08:06:29.015Z,100.00
2022-11-05T08:08:55.297Z,100.00
2022-11-05T08:11:21.645Z,99.82
2022-11-05T08:13:47.997Z,99.64
2022-11-05T08:16:15.411Z,99.53
2022-11-05T08:18:41.821Z,99.45
2022-11-05T08:21:09.431Z,98.71
2022-11-05T08:23:35.845Z,97.85
2022-11-05T08:26:03.562Z,97.22
2022-11-05T08:28:29.969Z,97.05
2022-11-05T08:30:57.547Z,96.75
2022-11-05T08:33:24.907Z,95.89
2022-11-05T08:35:51.402Z,95.82
2022-11-05T08:38:19.534Z,95.68
2022-11-05T08:40:53.842Z,95.19
2022-11-05T08:43:20.246Z,94.29
2022-11-05T08:45:46.678Z,93.61
2022-11-05T08:50:45.790Z,93.17
2022-11-05T08:55:39.442Z,91.84
2022-11-05T08:58:10.521Z,91.31
2022-11-05T09:00:38.263Z,91.68
2022-11-05T09:03:06.399Z,90.83
2022-11-05T09:08:09.025Z,90.98
2022-11-05T09:10:36.235Z,90.22
2022-11-05T09:13:03.035Z,89.90
2022-11-05T09:15:29.821Z,89.33
2022-11-05T09:17:56.643Z,88.28
2022-11-05T09:22:49.539Z,88.23
2022-11-05T09:25:16.054Z,87.96
2022-11-05T09:27:42.969Z,87.65
2022-11-05T09:30:11.784Z,87.60
2022-11-05T09:32:38.717Z,87.38
2022-11-05T09:35:05.961Z,85.41
2022-11-05T09:37:32.395Z,84.47
2022-11-05T09:39:58.767Z,84.97
2022-11-05T09:45:14.795Z,83.64
2022-11-05T09:47:45.409Z,84.54
2022-11-05T09:50:19.766Z,85.25
2022-11-05T09:52:46.197Z,84.04
2022-11-05T09:55:26.199Z,82.56
2022-11-05T09:57:57.218Z,81.66
2022-11-05T10:00:23.708Z,81.30
2022-11-05T10:02:55.509Z,81.77
2022-11-05T10:05:24.496Z,80.94
2022-11-05T10:07:55.230Z,81.09
2022-11-05T10:10:31.408Z,80.50
2022-11-05T10:13:02.818Z,80.38
2022-11-05T10:15:34.122Z,79.89
2022-11-05T10:18:14.458Z,79.32
2022-11-05T10:20:42.677Z,78.98
2022-11-05T10:23:20.814Z,78.14
2022-11-05T10:26:01.494Z,77.35
2022-11-05T10:28:30.573Z,77.18
2022-11-05T10:31:04.212Z,76.09
2022-11-05T10:33:43.670Z,76.10
2022-11-05T10:38:38.339Z,75.98
2022-11-05T10:43:49.056Z,74.19
2022-11-05T10:46:21.960Z,74.50
2022-11-05T10:49:03.878Z,75.35
2022-11-05T10:51:31.925Z,74.45
2022-11-05T10:54:05.250Z,75.16
2022-11-05T10:56:39.231Z,75.84
2022-11-05T10:59:19.010Z,74.37
2022-11-05T11:06:49.590Z,72.48
2022-11-05T11:09:22.486Z,73.18
2022-11-05T11:11:56.815Z,73.43
2022-11-05T11:21:47.242Z,70.83
2022-11-05T11:24:23.143Z,71.52
2022-11-05T11:26:49.538Z,71.50
2022-11-05T11:31:54.204Z,70.43
2022-11-05T11:34:36.123Z,71.53
2022-11-05T11:37:19.623Z,71.57
2022-11-05T11:39:55.982Z,71.41
2022-11-05T11:42:34.426Z,71.19
2022-11-05T11:47:33.295Z,69.22
2022-11-05T11:50:01.535Z,69.42
2022-11-05T11:52:34.223Z,68.42
2022-11-05T11:57:45.630Z,70.49
2022-11-05T12:00:12.777Z,70.77
2022-11-05T12:03:04.160Z,72.49
2022-11-05T12:05:44.075Z,73.95
2022-11-05T12:13:20.668Z,75.74
2022-11-05T12:15:54.289Z,76.01
2022-11-05T12:18:40.964Z,76.89
2022-11-05T12:21:51.400Z,75.49
2022-11-05T12:24:46.494Z,76.49
2022-11-05T12:27:27.571Z,75.02
2022-11-05T12:32:30.172Z,75.19
2022-11-05T12:35:06.505Z,75.87
2022-11-05T12:38:09.488Z,75.23
2022-11-05T12:41:11.312Z,75.38
2022-11-05T12:44:01.644Z,74.77
2022-11-05T12:49:30.707Z,74.18
2022-11-05T12:52:20.438Z,75.27
2022-11-05T12:57:23.349Z,75.64
2022-11-05T13:00:01.759Z,75.04
2022-11-05T13:02:52.572Z,75.74
2022-11-05T13:05:29.279Z,76.36
2022-11-05T13:08:14.070Z,75.35
2022-11-05T13:10:52.353Z,75.32
2022-11-05T13:13:26.503Z,75.45
2022-11-05T13:16:48.535Z,75.37
2022-11-05T13:19:34.770Z,74.88
2022-11-05T13:24:48.101Z,74.59
2022-11-05T13:30:05.025Z,73.72
2022-11-05T13:32:36.120Z,73.80
2022-11-05T13:35:08.410Z,73.95
2022-11-05T13:37:59.398Z,73.18
2022-11-05T13:40:42.735Z,73.49
2022-11-05T13:43:17.956Z,74.17
2022-11-05T13:46:11.759Z,73.41
2022-11-05T13:48:47.964Z,72.26
2022-11-05T13:51:36.182Z,72.65
2022-11-05T13:57:14.493Z,72.61
2022-11-05T13:59:59.942Z,72.28
2022-11-05T14:07:32.175Z,70.37
2022-11-05T14:10:01.912Z,71.42
2022-11-05T14:12:33.074Z,71.34
2022-11-05T14:17:57.237Z,71.76
2022-11-05T14:23:17.529Z,73.01
2022-11-05T14:28:40.834Z,72.72
2022-11-05T14:33:39.828Z,70.87
2022-11-05T14:36:21.077Z,71.34
2022-11-05T14:38:50.578Z,72.17
2022-11-05T14:41:18.161Z,72.68
2022-11-05T14:43:50.106Z,72.58
2022-11-05T14:48:48.558Z,73.40
2022-11-05T14:51:35.554Z,73.87
2022-11-05T14:54:15.188Z,73.54
2022-11-05T14:56:59.291Z,74.12
2022-11-05T14:59:25.633Z,74.64
2022-11-05T15:01:56.566Z,74.30
2022-11-05T15:04:31.483Z,73.75
2022-11-05T15:07:03.728Z,73.89
2022-11-05T15:09:54.296Z,74.20
2022-11-05T15:15:01.870Z,73.92
2022-11-05T15:17:38.487Z,73.43
2022-11-05T15:20:19.790Z,72.98
2022-11-05T15:22:51.392Z,72.15
2022-11-05T15:25:23.420Z,72.83
2022-11-05T15:28:06.265Z,73.44
2022-11-05T15:30:32.669Z,73.75
2022-11-05T15:33:17.600Z,73.50
2022-11-05T15:38:30.820Z,72.88
2022-11-05T15:40:59.104Z,72.81
2022-11-05T15:43:25.485Z,73.32
2022-11-05T15:50:56.375Z,73.26
2022-11-05T15:54:16.178Z,73.74
2022-11-05T15:56:48.366Z,73.49
2022-11-05T15:59:20.568Z,73.62
2022-11-05T16:04:22.905Z,73.91
2022-11-05T16:06:52.558Z,74.00
2022-11-05T16:09:31.821Z,73.97
2022-11-05T16:12:20.230Z,73.95
2022-11-05T16:15:09.392Z,74.17
2022-11-05T16:17:48.285Z,74.14
2022-11-05T16:20:30.041Z,74.51
2022-11-05T16:23:08.192Z,74.67
2022-11-05T16:25:43.830Z,74.50
2022-11-05T16:28:25.069Z,74.85
2022-11-05T16:30:56.736Z,75.19
2022-11-05T16:33:24.973Z,74.82
2022-11-05T16:35:51.406Z,75.21
2022-11-05T16:38:18.566Z,74.85
2022-11-05T16:40:45.067Z,74.86
2022-11-05T16:43:24.098Z,74.91
2022-11-05T16:45:53.841Z,74.83
2022-11-05T16:48:20.420Z,74.78
2022-11-05T16:50:46.838Z,74.58
2022-11-05T16:53:13.892Z,74.54
2022-11-05T16:55:42.082Z,74.75
2022-11-05T16:58:19.402Z,74.81
2022-11-05T17:00:45.956Z,74.77
2022-11-05T17:05:38.580Z,74.20
2022-11-05T17:08:05.108Z,74.31
2022-11-05T17:10:31.537Z,74.10
2022-11-05T17:12:57.943Z,74.06
2022-11-05T17:15:31.019Z,74.17
2022-11-05T17:17:58.322Z,74.45
2022-11-05T17:20:35.105Z,74.48
2022-11-05T17:23:06.884Z,74.06
2022-11-05T17:25:33.798Z,74.12
2022-11-05T17:28:00.190Z,74.25
2022-11-05T17:30:26.570Z,74.39
2022-11-05T17:32:53.066Z,74.52
2022-11-05T17:35:20.436Z,74.43
2022-11-05T17:42:41.244Z,74.30
2022-11-05T17:45:08.382Z,74.16
2022-11-05T17:47:34.779Z,74.27
2022-11-05T17:50:01.121Z,74.17
2022-11-05T17:52:28.567Z,74.06
2022-11-05T17:54:54.917Z,74.32
2022-11-05T17:57:21.276Z,74.18
2022-11-05T17:59:47.664Z,73.97
2022-11-05T18:02:14.342Z,74.20
2022-11-05T18:04:40.896Z,74.45
2022-11-05T18:09:33.763Z,74.11
2022-11-05T18:12:00.180Z,74.09
2022-11-05T18:14:26.537Z,73.90
2022-11-05T18:16:55.241Z,74.45
2022-11-05T18:19:21.771Z,74.00
2022-11-05T18:21:48.128Z,74.31
2022-11-05T18:24:14.487Z,74.19
2022-11-05T18:26:41.927Z,74.31
2022-11-05T18:29:08.283Z,74.54
2022-11-05T18:31:34.689Z,74.72
2022-11-05T18:34:01.183Z,74.70
2022-11-05T18:36:30.029Z,74.88
2022-11-05T18:38:57.897Z,74.97
2022-11-05T18:41:24.499Z,75.15
2022-11-05T18:43:51.319Z,75.15
2022-11-05T18:46:42.976Z,75.28
2022-11-05T18:49:04.491Z,75.38
2022-11-05T18:51:31.452Z,75.37
2022-11-05T18:59:08.383Z,75.69
2022-11-05T19:01:39.576Z,75.71
2022-11-05T19:04:06.329Z,75.87
2022-11-05T19:06:33.796Z,75.96
2022-11-05T19:09:00.199Z,76.20
2022-11-05T19:11:26.972Z,76.45
2022-11-05T19:13:53.395Z,76.09
2022-11-05T19:18:47.914Z,76.71
2022-11-05T19:21:17.648Z,77.08
2022-11-05T19:23:44.336Z,77.27
2022-11-05T19:26:13.810Z,76.91
2022-11-05T19:28:41.141Z,77.09
2022-11-05T19:33:33.949Z,77.13
2022-11-05T19:36:04.839Z,77.35
2022-11-05T19:38:31.398Z,77.74
2022-11-05T19:40:57.755Z,77.68
2022-11-05T19:43:24.156Z,77.82
2022-11-05T19:45:50.462Z,77.92
2022-11-05T19:48:19.786Z,78.22
2022-11-05T19:50:47.009Z,78.44
2022-11-05T19:53:13.401Z,78.25
2022-11-05T19:55:40.909Z,78.39
2022-11-05T19:58:07.993Z,78.47
2022-11-05T20:00:35.132Z,78.69
2022-11-05T20:03:01.879Z,78.84
2022-11-05T20:05:28.272Z,79.21
2022-11-05T20:07:55.792Z,78.94
2022-11-05T20:10:22.221Z,79.32
2022-11-05T20:12:48.656Z,79.16
2022-11-05T20:15:15.062Z,78.99
2022-11-05T20:17:41.513Z,79.18
2022-11-05T20:20:08.408Z,79.34
2022-11-05T20:22:34.793Z,79.67
2022-11-05T20:25:01.268Z,79.67
2022-11-05T20:27:28.547Z,79.69
2022-11-05T20:29:54.917Z,79.73
2022-11-05T20:32:21.283Z,79.73
2022-11-05T20:37:13.897Z,79.62
2022-11-05T20:39:40.429Z,79.57
2022-11-05T20:42:06.743Z,79.32
2022-11-05T20:44:33.122Z,79.53
2022-11-05T20:46:59.833Z,79.62
2022-11-05T20:49:26.221Z,79.65
2022-11-05T20:51:52.756Z,79.80
2022-11-05T20:54:19.515Z,79.73
2022-11-05T20:56:45.921Z,79.32
2022-11-05T20:59:12.252Z,79.56
2022-11-05T21:01:38.754Z,79.53
2022-11-05T21:04:05.453Z,79.90
2022-11-05T21:08:58.889Z,79.82
2022-11-05T21:11:25.232Z,79.91
2022-11-05T21:13:51.612Z,79.83
2022-11-05T21:16:19.635Z,80.14
2022-11-05T21:18:47.053Z,80.04
2022-11-05T21:21:16.911Z,79.99
2022-11-05T21:23:43.331Z,79.90
2022-11-05T21:26:12.521Z,80.04
2022-11-05T21:28:40.861Z,80.11
2022-11-05T21:31:08.669Z,80.27
2022-11-05T21:33:35.145Z,80.11
2022-11-05T21:36:09.884Z,80.21
2022-11-05T21:38:36.583Z,80.21
2022-11-05T21:41:03.956Z,80.47
2022-11-05T21:43:30.771Z,80.38
2022-11-05T21:46:00.728Z,80.54
2022-11-05T21:51:12.083Z,80.44
2022-11-05T21:53:57.925Z,80.90
2022-11-05T21:56:44.662Z,80.56
2022-11-05T21:59:33.495Z,80.54
2022-11-05T22:02:02.840Z,80.68
2022-11-05T22:04:35.748Z,80.96
2022-11-05T22:07:02.813Z,80.72
2022-11-05T22:09:29.585Z,80.68
2022-11-05T22:11:56.331Z,80.62
2022-11-05T22:14:23.326Z,80.66
2022-11-05T22:16:49.738Z,80.55
2022-11-05T22:19:16.185Z,80.52
2022-11-05T22:21:42.705Z,80.41
2022-11-05T22:24:09.175Z,80.16
2022-11-05T22:26:36.796Z,80.59
2022-11-05T22:29:04.082Z,80.05
2022-11-05T22:31:35.813Z,80.38
2022-11-05T22:34:03.464Z,80.43
2022-11-05T22:36:29.895Z,80.43
2022-11-05T22:38:56.191Z,80.44
2022-11-05T22:43:49.581Z,80.35
2022-11-05T22:46:21.768Z,80.25
2022-11-05T22:48:48.965Z,80.27
2022-11-05T22:51:19.566Z,80.03
2022-11-05T22:53:45.990Z,80.06
2022-11-05T22:56:14.991Z,80.13
2022-11-05T22:58:42.221Z,79.97
2022-11-05T23:01:13.803Z,80.31
2022-11-05T23:03:42.101Z,80.11
2022-11-05T23:06:32.733Z,80.36
2022-11-05T23:09:18.496Z,80.27
2022-11-05T23:11:52.714Z,80.00
2022-11-05T23:14:19.630Z,80.05
2022-11-05T23:17:04.411Z,80.01
2022-11-05T23:19:49.815Z,80.19
2022-11-05T23:22:41.104Z,80.14
2022-11-05T23:25:10.755Z,80.05
2022-11-05T23:30:13.424Z,80.13
2022-11-05T23:32:39.777Z,80.09
2022-11-05T23:35:06.674Z,79.72
2022-11-05T23:43:06.876Z,79.55
2022-11-05T23:45:52.200Z,79.85
2022-11-05T23:51:02.277Z,79.72
2022-11-05T23:53:31.144Z,80.20
2022-11-05T23:56:04.415Z,80.25
2022-11-05T23:58:31.139Z,80.08
